GGOV

Osvaldo Vieira International Airport

Bissau, Guinea-Bissau
METAR GGOV 121900Z 26003KT CAVOK 28/17 Q1011 NOSIG
Observed Flight Rules
Dec-12 @ 19:00 UTC (an hour ago) Visual Flight Rules
Wind Visibility Clouds
260° at 3 knots 10,000+ meters
  • Clear skies
Temperatures Readings
Current 28°C / 82°F
Dewpoint 17°C / 63°F
Humidity 51%
Altimeter 29.85" Hg
Pressure 1011 hPa
Elevation 36
METAR GGOV 121900Z 26003KT CAVOK 28/17 Q1011 NOSIG
Observed Flight Rules
Dec-12 @ 19:00 UTC
(an hour ago)
VFR
Wind Visibility
260° at 3 knots 10,000+ meters
Clouds
  • Clear skies
Temperature Dewpoint
28°C / 82°F 17°C / 63°F
Humidity Altimeter Pressure
51% 29.85" Hg 1011 hPa